createdAt,value
2017-07-18T03:30:26.443Z,86.5
2017-07-18T03:31:27.795Z,87.0
2017-07-18T03:32:49.319Z,86.9
2017-07-18T03:33:50.673Z,87.0
2017-07-18T03:35:12.179Z,87.1
2017-07-18T03:36:13.534Z,86.7
2017-07-18T03:37:35.062Z,85.6
2017-07-18T03:38:36.420Z,86.0
2017-07-18T03:39:57.930Z,84.7
2017-07-18T03:40:59.290Z,84.5
2017-07-18T03:42:20.819Z,83.8
2017-07-18T03:43:22.176Z,83.3
2017-07-18T03:44:43.686Z,82.5
2017-07-18T03:45:45.048Z,81.5
2017-07-18T03:47:06.577Z,81.0
2017-07-18T03:48:07.936Z,80.6
2017-07-18T03:49:29.447Z,79.7
2017-07-18T03:50:30.809Z,79.4
2017-07-18T03:51:52.336Z,78.8
2017-07-18T03:52:53.699Z,78.3
2017-07-18T03:54:15.212Z,77.6
2017-07-18T03:55:16.608Z,77.1
2017-07-18T03:56:38.102Z,77.3
2017-07-18T03:57:39.461Z,77.4
2017-07-18T03:59:00.981Z,76.6
2017-07-18T04:00:02.342Z,75.9
2017-07-18T04:01:23.851Z,74.5
2017-07-18T04:02:25.219Z,74.1
2017-07-18T04:03:46.748Z,73.3
2017-07-18T04:04:48.110Z,73.1
2017-07-18T04:06:09.628Z,71.6
2017-07-18T04:07:10.991Z,70.9
2017-07-18T04:08:32.525Z,69.8
2017-07-18T04:09:33.887Z,71.4
2017-07-18T04:10:55.410Z,71.7
2017-07-18T04:11:56.773Z,70.6
2017-07-18T04:13:18.304Z,70.4
2017-07-18T04:14:19.670Z,70.5
2017-07-18T04:15:41.186Z,70.3
2017-07-18T04:16:42.551Z,70.9
2017-07-18T04:18:04.084Z,70.8
2017-07-18T04:19:05.447Z,70.7
2017-07-18T04:20:26.967Z,70.1
2017-07-18T04:21:28.332Z,69.8
2017-07-18T04:22:49.871Z,69.9
2017-07-18T04:23:51.235Z,69.5
2017-07-18T04:25:12.752Z,68.1
2017-07-18T04:26:14.119Z,67.6
2017-07-18T04:27:35.865Z,66.8
2017-07-18T04:28:37.233Z,65.9
2017-07-18T04:29:58.754Z,65.1
2017-07-18T04:31:00.115Z,64.1
2017-07-18T04:32:21.655Z,62.2
2017-07-18T04:33:23.019Z,62.1
2017-07-18T04:34:44.540Z,60.4
2017-07-18T04:35:45.903Z,60.2
2017-07-18T04:37:08.435Z,58.7
2017-07-18T04:38:09.803Z,58.3
2017-07-18T04:39:31.325Z,58.0
2017-07-18T04:40:32.692Z,57.7
2017-07-18T04:41:54.229Z,58.0
2017-07-18T04:42:55.597Z,57.3
2017-07-18T04:44:17.130Z,56.6
2017-07-18T04:45:18.486Z,56.2
2017-07-18T04:46:40.011Z,55.5
2017-07-18T04:47:41.371Z,54.9
2017-07-18T04:49:02.913Z,55.0
2017-07-18T04:50:04.279Z,54.7
2017-07-18T04:51:25.803Z,55.0
2017-07-18T04:52:27.170Z,54.3
2017-07-18T04:53:48.713Z,54.9
2017-07-18T04:54:50.082Z,54.3
2017-07-18T04:56:11.601Z,54.0
2017-07-18T04:57:12.970Z,54.3
2017-07-18T04:58:34.516Z,52.9
2017-07-18T04:59:35.882Z,53.2
2017-07-18T05:00:57.408Z,53.4
2017-07-18T05:01:58.775Z,52.7
2017-07-18T05:03:20.316Z,53.1
2017-07-18T05:04:21.685Z,52.7
2017-07-18T05:05:43.210Z,53.5
2017-07-18T05:06:44.580Z,53.1
2017-07-18T05:08:06.125Z,52.9
2017-07-18T05:09:07.488Z,53.0
2017-07-18T05:10:29.015Z,53.1
2017-07-18T05:11:30.383Z,53.1
2017-07-18T05:12:51.928Z,52.1
2017-07-18T05:13:53.296Z,51.0
2017-07-18T05:15:14.820Z,51.2
2017-07-18T05:16:16.201Z,49.6
2017-07-18T05:17:37.734Z,49.1
2017-07-18T05:18:39.105Z,49.6
2017-07-18T05:20:00.649Z,49.8
2017-07-18T05:21:02.020Z,49.4
2017-07-18T05:22:23.567Z,49.0
2017-07-18T05:23:24.936Z,49.6
2017-07-18T05:24:46.464Z,49.1
2017-07-18T05:25:47.833Z,48.5
2017-07-18T05:27:09.379Z,47.0
2017-07-18T05:28:10.749Z,45.9
2017-07-18T05:29:32.274Z,46.0
2017-07-18T05:30:33.644Z,46.9
2017-07-18T05:31:55.172Z,46.2
2017-07-18T05:32:56.546Z,46.7
2017-07-18T05:34:18.092Z,48.3
2017-07-18T05:35:19.464Z,49.0
2017-07-18T05:36:40.990Z,49.2
2017-07-18T05:37:42.361Z,50.2
2017-07-18T05:39:03.909Z,50.1
2017-07-18T05:40:05.280Z,49.7
2017-07-18T05:41:26.804Z,51.3
2017-07-18T05:42:28.176Z,50.9
2017-07-18T05:43:49.721Z,51.3
2017-07-18T05:44:51.092Z,50.4
2017-07-18T05:46:12.618Z,50.2
2017-07-18T05:47:13.986Z,50.0
2017-07-18T05:48:35.535Z,49.8
2017-07-18T05:49:36.901Z,50.0
2017-07-18T05:50:58.428Z,49.4
2017-07-18T05:51:59.803Z,50.8
2017-07-18T05:53:21.348Z,50.4
2017-07-18T05:54:22.720Z,50.2
2017-07-18T05:55:44.245Z,50.4
2017-07-18T05:56:45.619Z,49.8
2017-07-18T05:58:07.175Z,49.9
2017-07-18T05:59:08.538Z,49.4
2017-07-18T06:00:30.064Z,49.4
2017-07-18T06:01:31.436Z,49.5
2017-07-18T06:02:52.984Z,48.4
2017-07-18T06:03:54.353Z,47.7
2017-07-18T06:05:15.882Z,48.5
2017-07-18T06:06:17.255Z,48.4
2017-07-18T06:07:38.802Z,48.5
2017-07-18T06:08:40.175Z,48.5
2017-07-18T06:10:01.700Z,48.8
2017-07-18T06:11:03.075Z,48.5
2017-07-18T06:12:24.620Z,49.0
2017-07-18T06:13:25.991Z,49.3
2017-07-18T06:14:47.521Z,48.6
2017-07-18T06:15:48.899Z,46.9
2017-07-18T06:17:10.424Z,46.9
2017-07-18T06:18:11.796Z,46.8
2017-07-18T06:19:33.343Z,47.0
2017-07-18T06:20:34.715Z,45.9
2017-07-18T06:21:56.243Z,46.4
2017-07-18T06:22:57.617Z,45.6
2017-07-18T06:24:19.168Z,46.7
2017-07-18T06:25:20.536Z,46.9
2017-07-18T06:26:42.066Z,46.2
2017-07-18T06:27:43.437Z,46.7
2017-07-18T06:29:04.987Z,46.9
2017-07-18T06:30:06.359Z,47.8
2017-07-18T06:31:27.888Z,48.4
2017-07-18T06:32:29.258Z,47.8
2017-07-18T06:33:50.807Z,47.9
2017-07-18T06:34:52.180Z,47.8
2017-07-18T06:36:13.711Z,47.0
2017-07-18T06:37:15.086Z,46.3
2017-07-18T06:38:36.635Z,47.1
2017-07-18T06:39:38.007Z,45.4
2017-07-18T06:41:00.533Z,45.2
2017-07-18T06:42:01.911Z,45.0
2017-07-18T06:43:23.458Z,44.0
2017-07-18T06:44:24.834Z,43.5
2017-07-18T06:45:46.363Z,43.1
2017-07-18T06:46:47.739Z,43.3
2017-07-18T06:48:09.291Z,44.2
2017-07-18T06:49:10.675Z,44.5
2017-07-18T06:50:32.203Z,44.2
2017-07-18T06:51:33.599Z,44.4
2017-07-18T06:52:55.126Z,45.3
2017-07-18T06:53:56.502Z,44.8
2017-07-18T06:55:18.033Z,45.0
2017-07-18T06:56:19.409Z,45.0
2017-07-18T06:57:40.953Z,45.3
2017-07-18T06:58:42.336Z,44.3
2017-07-18T07:00:03.862Z,44.6
2017-07-18T07:01:05.238Z,45.6
2017-07-18T07:02:26.769Z,45.5
2017-07-18T07:03:28.144Z,45.5
2017-07-18T07:04:49.693Z,44.9
2017-07-18T07:05:51.066Z,45.5
2017-07-18T07:07:12.598Z,45.3
2017-07-18T07:08:13.970Z,45.2
2017-07-18T07:09:35.516Z,45.7
2017-07-18T07:10:36.891Z,45.3
2017-07-18T07:11:58.417Z,45.1
2017-07-18T07:12:59.793Z,45.0
2017-07-18T07:14:21.338Z,44.2
2017-07-18T07:15:22.712Z,43.2
2017-07-18T07:16:44.244Z,43.6
2017-07-18T07:17:45.620Z,43.2
2017-07-18T07:19:07.167Z,42.5
2017-07-18T07:20:08.543Z,42.9
2017-07-18T07:21:30.073Z,42.6
2017-07-18T07:22:31.446Z,43.2
2017-07-18T07:23:52.996Z,43.7
2017-07-18T07:24:54.391Z,44.6
2017-07-18T07:26:15.915Z,45.0
2017-07-18T07:27:17.272Z,45.4
2017-07-18T07:28:38.820Z,43.6
2017-07-18T07:29:40.195Z,43.7
2017-07-18T07:31:01.725Z,44.8
2017-07-18T07:32:03.099Z,44.7
2017-07-18T07:33:24.641Z,45.2
2017-07-18T07:34:26.011Z,45.1
2017-07-18T07:35:47.540Z,45.6
2017-07-18T07:36:48.912Z,45.9
2017-07-18T07:38:10.464Z,47.0
2017-07-18T07:39:11.829Z,47.7
2017-07-18T07:40:33.355Z,46.9
2017-07-18T07:41:34.764Z,47.4
2017-07-18T07:42:56.306Z,47.1
2017-07-18T07:43:57.677Z,46.9
2017-07-18T07:45:19.223Z,46.9
2017-07-18T07:46:20.593Z,46.2
2017-07-18T07:47:42.123Z,46.8
2017-07-18T07:48:43.486Z,47.0
2017-07-18T07:50:05.029Z,46.9
2017-07-18T07:51:06.399Z,47.8
2017-07-18T07:52:27.924Z,48.0
2017-07-18T07:53:29.295Z,49.1
2017-07-18T07:54:50.838Z,48.1
2017-07-18T07:55:52.206Z,47.8
2017-07-18T07:57:13.735Z,47.4
2017-07-18T07:58:15.106Z,48.6
2017-07-18T07:59:36.650Z,48.6
2017-07-18T08:00:38.016Z,49.1
2017-07-18T08:01:59.542Z,48.5
2017-07-18T08:03:00.912Z,48.3
2017-07-18T08:04:22.452Z,48.7
2017-07-18T08:05:23.823Z,48.5
2017-07-18T08:06:45.347Z,48.4
2017-07-18T08:07:46.716Z,48.7
2017-07-18T08:09:08.258Z,49.3
2017-07-18T08:10:09.627Z,48.5
2017-07-18T08:11:31.154Z,50.1
2017-07-18T08:12:32.521Z,49.2
2017-07-18T08:13:54.065Z,49.0
2017-07-18T08:14:55.449Z,48.3
2017-07-18T08:16:17.182Z,48.7
2017-07-18T08:17:18.566Z,49.3
2017-07-18T08:18:40.135Z,48.6
2017-07-18T08:19:41.508Z,49.2
2017-07-18T08:21:03.158Z,49.6
2017-07-18T08:22:04.646Z,49.3
2017-07-18T08:23:26.202Z,47.3
2017-07-18T08:24:27.569Z,48.5
2017-07-18T08:25:49.092Z,49.0
2017-07-18T08:26:50.467Z,49.1
2017-07-18T08:28:11.996Z,47.9
2017-07-18T08:29:13.368Z,48.5
2017-07-18T08:30:34.907Z,47.8
2017-07-18T08:31:36.275Z,47.4
2017-07-18T08:32:57.806Z,47.4
2017-07-18T08:33:59.208Z,47.0
2017-07-18T08:35:20.891Z,47.7
2017-07-18T08:36:22.266Z,47.6
2017-07-18T08:37:43.789Z,47.9
2017-07-18T08:38:45.159Z,45.5
2017-07-18T08:40:06.704Z,46.9
2017-07-18T08:41:08.098Z,46.5
2017-07-18T08:42:30.103Z,46.2
2017-07-18T08:43:31.352Z,46.8
2017-07-18T08:44:52.902Z,46.2
2017-07-18T08:45:54.268Z,44.9
2017-07-18T08:47:16.644Z,45.6
2017-07-18T08:48:18.068Z,44.2
2017-07-18T08:49:39.618Z,45.6
2017-07-18T08:50:40.984Z,44.9
2017-07-18T08:52:02.514Z,44.5
2017-07-18T08:53:03.888Z,44.8
2017-07-18T08:54:25.435Z,44.4
2017-07-18T08:55:26.802Z,43.8
2017-07-18T08:56:48.344Z,44.7
2017-07-18T08:57:49.717Z,44.5
2017-07-18T08:59:11.414Z,43.5
2017-07-18T09:00:12.785Z,41.8
2017-07-18T09:01:34.304Z,41.9
2017-07-18T09:02:35.677Z,43.0
2017-07-18T09:03:57.277Z,42.2
2017-07-18T09:04:58.651Z,41.8
2017-07-18T09:06:20.360Z,43.6
2017-07-18T09:07:21.731Z,43.6
2017-07-18T09:08:43.314Z,44.9
2017-07-18T09:09:44.881Z,44.4
2017-07-18T09:11:06.460Z,43.0
2017-07-18T09:12:07.860Z,41.8
2017-07-18T09:13:29.450Z,42.2
2017-07-18T09:14:30.868Z,42.9
2017-07-18T09:15:52.471Z,43.7
2017-07-18T09:16:53.873Z,42.5
2017-07-18T09:18:15.434Z,44.6
2017-07-18T09:19:16.856Z,44.5
2017-07-18T09:20:38.472Z,44.2
2017-07-18T09:21:39.850Z,43.6
2017-07-18T09:23:01.432Z,43.3
2017-07-18T09:24:02.824Z,44.4
2017-07-18T09:25:24.444Z,42.6
2017-07-18T09:26:26.053Z,42.7
2017-07-18T09:27:47.598Z,42.7
2017-07-18T09:28:49.011Z,41.8
2017-07-18T09:30:10.591Z,42.0
2017-07-18T09:31:12.005Z,41.7
2017-07-18T09:32:33.566Z,42.2
2017-07-18T09:33:34.971Z,41.4
2017-07-18T09:34:56.547Z,42.0
2017-07-18T09:35:58.010Z,43.8
2017-07-18T09:37:19.558Z,43.9
2017-07-18T09:38:21.646Z,43.9
2017-07-18T09:39:45.340Z,42.5
2017-07-18T15:07:47.464Z,30.9
2017-07-18T15:08:48.836Z,30.7
2017-07-18T15:10:10.381Z,31.6
2017-07-18T15:11:11.753Z,31.6
2017-07-18T15:12:33.337Z,30.8
2017-07-18T15:13:34.711Z,32.6
2017-07-18T15:14:56.253Z,31.7
2017-07-18T15:15:57.625Z,32.0
2017-07-18T15:17:19.215Z,31.5
2017-07-18T15:18:20.585Z,32.7
2017-07-18T15:19:42.121Z,32.3
2017-07-18T15:20:43.824Z,32.3
2017-07-18T15:22:05.356Z,30.7
2017-07-18T15:23:06.724Z,30.4
2017-07-18T15:24:28.286Z,30.5
2017-07-18T15:25:29.673Z,30.4
2017-07-18T15:26:51.301Z,30.7
2017-07-18T15:27:53.046Z,30.7
2017-07-18T17:43:42.319Z,34.9
2017-07-18T17:44:43.711Z,34.7
2017-07-18T17:46:05.234Z,34.8
2017-07-18T17:47:06.600Z,35.2
2017-07-18T17:48:28.151Z,35.0
2017-07-18T17:49:29.521Z,35.4
2017-07-18T17:50:51.048Z,36.0
2017-07-18T17:51:52.421Z,36.6
2017-07-18T17:53:13.968Z,37.0
2017-07-18T17:54:15.338Z,37.3
2017-07-18T17:55:36.885Z,37.2
2017-07-18T17:56:38.418Z,37.7
2017-07-18T17:57:59.947Z,38.2
2017-07-18T17:59:01.320Z,38.0
2017-07-18T18:00:22.870Z,38.8
2017-07-18T18:01:24.329Z,38.1
2017-07-18T18:02:45.871Z,38.9
2017-07-18T18:03:47.244Z,39.2
2017-07-18T18:05:08.960Z,39.5
2017-07-18T18:06:10.569Z,39.6
2017-07-18T18:07:32.336Z,39.6
2017-07-18T18:08:33.713Z,39.6
2017-07-18T18:09:55.263Z,39.6
2017-07-18T18:10:56.633Z,39.9
2017-07-18T18:12:18.156Z,40.0
2017-07-18T18:13:19.545Z,39.7
2017-07-18T18:14:41.075Z,40.0
2017-07-18T18:15:42.445Z,39.9
2017-07-18T18:17:04.020Z,40.7
2017-07-18T18:18:05.391Z,40.6
2017-07-18T18:19:26.974Z,40.2
2017-07-18T18:20:28.359Z,40.4
2017-07-18T18:21:49.908Z,40.2
2017-07-18T18:22:51.279Z,40.8
2017-07-18T18:24:12.833Z,40.2
2017-07-18T18:25:14.203Z,40.8
2017-07-18T18:26:35.878Z,41.1
2017-07-18T18:27:37.249Z,41.1
2017-07-18T18:28:58.793Z,41.5
2017-07-18T18:30:00.162Z,41.7
2017-07-18T18:31:21.693Z,41.0
2017-07-18T18:32:23.062Z,41.8
2017-07-18T18:33:44.602Z,41.9
2017-07-18T18:34:45.975Z,41.7
2017-07-18T18:36:07.503Z,41.6
2017-07-18T18:37:08.878Z,41.8
2017-07-18T18:38:30.393Z,41.9
2017-07-18T18:39:31.764Z,42.0
2017-07-18T18:40:53.310Z,42.1
2017-07-18T18:41:54.680Z,42.0
2017-07-18T18:43:16.201Z,42.1
2017-07-18T18:44:17.572Z,42.1
2017-07-18T18:45:39.114Z,42.2
2017-07-18T18:46:40.480Z,42.6
2017-07-18T18:48:02.006Z,42.7
2017-07-18T18:49:03.376Z,43.0
2017-07-18T18:50:24.918Z,42.8
2017-07-18T18:51:26.283Z,42.8
2017-07-18T18:52:47.808Z,43.0
2017-07-18T18:53:49.177Z,42.6
2017-07-18T18:55:10.718Z,43.1
2017-07-18T18:56:12.090Z,43.1
2017-07-18T18:57:33.613Z,43.1
2017-07-18T18:58:34.997Z,43.0
2017-07-18T18:59:56.538Z,43.5
2017-07-18T19:00:57.907Z,43.0
2017-07-18T19:02:19.435Z,43.7
2017-07-18T19:03:20.801Z,43.4
2017-07-18T19:04:42.496Z,43.2
2017-07-18T19:05:43.868Z,43.4
2017-07-18T19:07:05.390Z,43.7
2017-07-18T19:08:06.759Z,43.6
2017-07-18T19:09:28.305Z,44.2
2017-07-18T19:10:29.672Z,43.9
2017-07-18T19:11:51.201Z,43.9
2017-07-18T19:12:52.565Z,44.0
2017-07-18T19:14:14.118Z,44.0
2017-07-18T19:15:15.484Z,44.4
2017-07-18T19:16:37.010Z,44.2
2017-07-18T19:17:38.377Z,44.2
2017-07-18T19:18:59.902Z,44.4
2017-07-18T19:20:01.270Z,44.6
2017-07-18T19:21:22.811Z,44.9
2017-07-18T19:22:24.177Z,44.8
2017-07-18T19:23:45.701Z,45.3
2017-07-18T19:24:47.071Z,44.7
2017-07-18T19:26:08.607Z,44.7
2017-07-18T19:27:09.974Z,45.5
2017-07-18T19:28:31.495Z,45.5
2017-07-18T19:29:32.863Z,45.8
2017-07-18T19:30:54.403Z,45.5
2017-07-18T19:31:55.772Z,45.4
2017-07-18T19:33:17.303Z,45.7
2017-07-18T19:34:18.664Z,45.6
2017-07-18T19:35:40.207Z,45.4
2017-07-18T19:36:41.574Z,45.9
2017-07-18T19:38:03.141Z,45.6
2017-07-18T19:39:04.508Z,46.0
2017-07-18T19:40:26.048Z,46.1
2017-07-18T19:41:27.414Z,46.1
2017-07-18T19:42:48.935Z,46.2
2017-07-18T19:43:50.323Z,46.4
2017-07-18T19:45:11.864Z,46.3
2017-07-18T19:46:13.231Z,46.9
2017-07-18T19:47:34.752Z,46.9
2017-07-18T19:48:36.118Z,46.8
2017-07-18T19:49:57.658Z,46.9
2017-07-18T19:50:59.023Z,46.8
2017-07-18T19:52:20.543Z,47.0
2017-07-18T19:53:21.912Z,47.4
2017-07-18T19:54:43.454Z,47.6
2017-07-18T19:55:44.825Z,47.4
2017-07-18T19:57:06.338Z,48.0
2017-07-18T19:58:07.703Z,47.9
2017-07-18T19:59:29.596Z,47.7
2017-07-18T20:00:30.954Z,47.9
2017-07-18T20:01:52.515Z,47.7
2017-07-18T20:02:53.880Z,48.3
2017-07-18T20:04:15.405Z,48.6
2017-07-18T20:05:16.768Z,48.4
2017-07-18T20:06:38.307Z,48.4
2017-07-18T20:07:39.671Z,48.8
2017-07-18T20:09:01.281Z,48.6
2017-07-18T20:10:02.647Z,48.6
2017-07-18T20:11:24.184Z,49.1
2017-07-18T20:12:25.548Z,49.3
2017-07-18T20:13:47.074Z,49.1
2017-07-18T20:14:48.444Z,49.0
2017-07-18T20:16:09.967Z,49.3
2017-07-18T20:17:11.334Z,49.5
2017-07-18T20:18:32.851Z,49.6
2017-07-18T20:19:34.215Z,49.7
2017-07-18T20:20:55.751Z,49.6
2017-07-18T20:21:57.114Z,49.7
2017-07-18T20:23:18.634Z,49.9
2017-07-18T20:24:19.995Z,49.9
2017-07-18T20:25:41.535Z,50.0
2017-07-18T20:26:42.898Z,50.0
2017-07-18T20:28:04.416Z,50.3
2017-07-18T20:29:05.782Z,50.0
2017-07-18T20:30:27.318Z,51.0
2017-07-18T20:31:28.682Z,50.7
2017-07-18T20:32:50.201Z,51.0
2017-07-18T20:33:51.566Z,51.0
2017-07-18T20:35:13.107Z,51.3
2017-07-18T20:36:14.467Z,51.2
2017-07-18T20:37:35.988Z,51.1
2017-07-18T20:38:37.351Z,52.0
2017-07-18T20:39:58.885Z,52.4
2017-07-18T20:41:00.271Z,52.1
2017-07-18T20:42:21.768Z,52.2
2017-07-18T20:43:23.133Z,52.6
2017-07-18T20:44:44.648Z,53.1
2017-07-18T20:45:46.014Z,53.1
2017-07-18T20:47:07.547Z,53.0
2017-07-18T20:48:08.910Z,53.5
2017-07-18T20:49:30.428Z,53.4
2017-07-18T20:50:31.794Z,53.3
2017-07-18T20:51:53.326Z,53.0
2017-07-18T20:52:54.690Z,52.9
2017-07-18T20:54:16.703Z,53.1
2017-07-18T20:55:18.064Z,53.3
2017-07-18T20:56:39.607Z,53.4
2017-07-18T20:57:40.965Z,53.6
2017-07-18T20:59:02.480Z,53.7
2017-07-18T21:00:03.843Z,53.6
2017-07-18T21:01:25.380Z,53.0
2017-07-18T21:02:26.743Z,53.4
2017-07-18T21:03:48.262Z,53.1
2017-07-18T21:04:49.627Z,53.2
2017-07-18T21:06:11.160Z,52.8
2017-07-18T21:07:12.524Z,53.5
2017-07-18T21:08:34.040Z,53.9
2017-07-18T21:09:35.405Z,53.8
2017-07-18T21:10:56.942Z,54.2
2017-07-18T21:11:58.304Z,54.1
2017-07-18T21:13:19.819Z,53.9
2017-07-18T21:14:21.183Z,54.3
2017-07-18T21:15:42.717Z,54.4
2017-07-18T21:16:44.080Z,54.3
2017-07-18T21:18:05.602Z,54.0
2017-07-18T21:19:06.968Z,54.0
2017-07-18T21:20:28.502Z,54.2
2017-07-18T21:21:29.867Z,54.3
2017-07-18T21:22:51.665Z,54.5
2017-07-18T21:23:53.328Z,54.7
2017-07-18T21:25:15.159Z,54.8
2017-07-18T21:26:16.820Z,55.0
2017-07-18T21:27:39.208Z,54.8
2017-07-18T21:28:40.861Z,55.1
2017-07-18T21:30:02.674Z,55.1
2017-07-18T21:31:04.320Z,54.7
2017-07-18T21:32:26.178Z,55.3
2017-07-18T21:33:27.805Z,55.5
2017-07-18T21:34:49.632Z,55.4
2017-07-18T21:35:51.005Z,55.9
2017-07-18T21:37:12.560Z,55.4
2017-07-18T21:38:13.948Z,55.9
2017-07-18T21:39:35.988Z,55.6
2017-07-18T21:40:37.374Z,55.8
2017-07-18T21:41:58.935Z,55.5
2017-07-18T21:43:00.311Z,56.1
2017-07-18T21:44:21.849Z,55.8
2017-07-18T21:45:23.235Z,55.8
2017-07-18T21:46:44.782Z,56.1
2017-07-18T21:47:46.155Z,56.0
2017-07-18T21:49:07.679Z,56.1
2017-07-18T21:50:09.049Z,55.9
2017-07-18T21:51:30.606Z,55.9
2017-07-18T21:52:32.046Z,55.9
2017-07-18T21:53:53.576Z,55.9
2017-07-18T21:54:54.982Z,56.0
2017-07-18T21:56:16.538Z,56.2
2017-07-18T21:57:17.911Z,56.2
2017-07-18T21:58:39.439Z,56.0
2017-07-18T21:59:40.815Z,56.2
2017-07-18T22:01:02.379Z,56.4
2017-07-18T22:02:03.755Z,56.4
2017-07-18T22:03:25.280Z,56.1
2017-07-18T22:04:26.650Z,56.1
2017-07-18T22:05:48.222Z,56.8
2017-07-18T22:06:49.594Z,56.8
2017-07-18T22:08:11.122Z,56.2
2017-07-18T22:09:12.496Z,56.3
2017-07-18T22:10:34.026Z,56.8
2017-07-18T22:11:35.400Z,56.5
2017-07-18T22:12:56.956Z,56.3
2017-07-18T22:13:58.327Z,56.9
2017-07-18T22:15:19.850Z,56.3
2017-07-18T22:16:21.495Z,56.8
2017-07-18T22:17:43.233Z,56.6
2017-07-18T22:18:44.675Z,56.8
2017-07-18T22:20:06.438Z,56.7
2017-07-18T22:21:07.807Z,56.6
2017-07-18T22:22:29.370Z,57.1
2017-07-18T22:23:30.778Z,57.0
2017-07-18T22:24:53.071Z,57.0
2017-07-18T22:25:54.443Z,57.0
2017-07-18T22:27:16.002Z,56.7
2017-07-18T22:28:17.380Z,57.3
2017-07-18T22:29:39.160Z,56.8
2017-07-18T22:30:40.730Z,57.0
2017-07-18T22:32:02.564Z,57.5
2017-07-18T22:33:04.125Z,57.4
2017-07-18T22:34:25.971Z,57.9
2017-07-18T22:35:27.454Z,57.6
2017-07-18T22:36:49.205Z,57.8
2017-07-18T22:37:50.708Z,57.6
2017-07-18T22:39:12.362Z,58.2
2017-07-18T22:40:13.918Z,58.4
2017-07-18T22:41:35.659Z,58.4
2017-07-18T22:42:37.133Z,58.2
2017-07-18T22:43:58.784Z,58.6
2017-07-18T22:45:00.284Z,58.7
2017-07-18T22:46:22.061Z,58.4
2017-07-18T22:47:23.647Z,58.3
2017-07-18T22:48:45.343Z,58.2
2017-07-18T22:49:46.963Z,58.6
2017-07-18T22:51:08.747Z,58.4
2017-07-18T22:52:10.225Z,59.2
2017-07-18T22:53:31.801Z,58.5
2017-07-18T22:54:33.269Z,58.6
2017-07-18T22:55:54.939Z,59.1
2017-07-18T22:56:56.453Z,58.5
2017-07-18T22:58:18.062Z,58.9
2017-07-18T22:59:19.663Z,58.7
2017-07-18T23:00:41.357Z,59.3
2017-07-18T23:01:42.829Z,59.0
2017-07-18T23:03:04.511Z,59.2
2017-07-18T23:04:06.034Z,59.1
2017-07-18T23:05:27.772Z,58.9
2017-07-18T23:06:29.169Z,59.2
2017-07-18T23:07:50.882Z,58.6
2017-07-18T23:08:52.473Z,59.1
2017-07-18T23:10:14.143Z,59.4
2017-07-18T23:11:15.736Z,59.3
2017-07-18T23:12:37.480Z,58.7
2017-07-18T23:13:39.074Z,58.6
2017-07-18T23:15:00.718Z,59.2
2017-07-18T23:16:02.144Z,58.9
2017-07-18T23:17:23.921Z,58.9
2017-07-18T23:18:25.443Z,59.1
2017-07-18T23:19:47.003Z,58.7
2017-07-18T23:20:48.573Z,58.4
2017-07-18T23:22:10.221Z,58.4
2017-07-18T23:23:11.705Z,58.4
2017-07-18T23:24:33.280Z,58.3
2017-07-18T23:25:34.687Z,58.5
2017-07-18T23:26:56.386Z,58.4
2017-07-18T23:27:57.969Z,58.6
2017-07-18T23:29:19.592Z,58.2
2017-07-18T23:30:21.160Z,58.4
2017-07-18T23:31:42.880Z,58.7
2017-07-18T23:32:44.452Z,58.5
2017-07-18T23:34:06.202Z,58.5
2017-07-18T23:35:07.747Z,58.3
2017-07-18T23:36:29.608Z,58.4
2017-07-18T23:37:31.172Z,58.6
2017-07-18T23:38:52.938Z,58.1
2017-07-18T23:39:54.351Z,58.0
2017-07-18T23:41:16.003Z,58.6
2017-07-18T23:42:17.465Z,58.1
2017-07-18T23:43:39.025Z,58.4
2017-07-18T23:44:40.498Z,58.8
2017-07-18T23:46:02.162Z,58.8
2017-07-18T23:47:03.748Z,59.4
2017-07-18T23:48:25.452Z,59.2
2017-07-18T23:49:26.838Z,59.1
2017-07-18T23:50:48.361Z,59.1
2017-07-18T23:51:49.762Z,59.2
2017-07-18T23:53:11.365Z,59.1
2017-07-18T23:54:12.848Z,59.1
2017-07-18T23:55:34.405Z,59.2
2017-07-18T23:56:35.784Z,59.0
2017-07-18T23:57:57.388Z,59.5
2017-07-18T23:58:58.763Z,59.4
